sensor_id;sensor_type;location;lat;lon;timestamp;temperature;humidity
69731;SHT31;56996;48.138;11.538;2023-08-12T00:00:13;20.74;63.18
69731;SHT31;56996;48.138;11.538;2023-08-12T00:02:42;20.71;63.27
69731;SHT31;56996;48.138;11.538;2023-08-12T00:05:10;20.69;63.41
69731;SHT31;56996;48.138;11.538;2023-08-12T00:07:38;20.68;63.57
69731;SHT31;56996;48.138;11.538;2023-08-12T00:10:10;20.66;63.70
69731;SHT31;56996;48.138;11.538;2023-08-12T00:12:38;20.64;63.84
69731;SHT31;56996;48.138;11.538;2023-08-12T00:15:06;20.60;63.94
69731;SHT31;56996;48.138;11.538;2023-08-12T00:17:34;20.57;64.13
69731;SHT31;56996;48.138;11.538;2023-08-12T00:20:09;20.56;64.25
69731;SHT31;56996;48.138;11.538;2023-08-12T00:22:38;20.54;64.33
69731;SHT31;56996;48.138;11.538;2023-08-12T00:25:06;20.53;64.40
69731;SHT31;56996;48.138;11.538;2023-08-12T00:27:33;20.51;64.51
69731;SHT31;56996;48.138;11.538;2023-08-12T00:30:00;20.47;64.67
69731;SHT31;56996;48.138;11.538;2023-08-12T00:32:28;20.42;64.85
69731;SHT31;56996;48.138;11.538;2023-08-12T00:34:54;20.39;65.00
69731;SHT31;56996;48.138;11.538;2023-08-12T00:37:21;20.36;65.08
69731;SHT31;56996;48.138;11.538;2023-08-12T00:39:48;20.32;65.38
69731;SHT31;56996;48.138;11.538;2023-08-12T00:42:15;20.29;65.27
69731;SHT31;56996;48.138;11.538;2023-08-12T00:44:44;20.27;65.47
69731;SHT31;56996;48.138;11.538;2023-08-12T00:47:11;20.24;65.64
69731;SHT31;56996;48.138;11.538;2023-08-12T00:49:39;20.21;65.76
69731;SHT31;56996;48.138;11.538;2023-08-12T00:52:07;20.17;65.88
69731;SHT31;56996;48.138;11.538;2023-08-12T00:54:34;20.15;65.97
69731;SHT31;56996;48.138;11.538;2023-08-12T00:57:00;20.13;66.06
69731;SHT31;56996;48.138;11.538;2023-08-12T00:59:27;20.11;66.18
69731;SHT31;56996;48.138;11.538;2023-08-12T01:01:55;20.07;66.33
69731;SHT31;56996;48.138;11.538;2023-08-12T01:04:22;20.04;66.48
69731;SHT31;56996;48.138;11.538;2023-08-12T01:06:49;20.00;66.61
69731;SHT31;56996;48.138;11.538;2023-08-12T01:09:16;19.98;66.72
69731;SHT31;56996;48.138;11.538;2023-08-12T01:11:50;19.96;66.86
69731;SHT31;56996;48.138;11.538;2023-08-12T01:17:14;19.88;67.14
69731;SHT31;56996;48.138;11.538;2023-08-12T01:19:42;19.86;67.21
69731;SHT31;56996;48.138;11.538;2023-08-12T01:22:11;19.84;67.28
69731;SHT31;56996;48.138;11.538;2023-08-12T01:24:42;19.81;67.40
69731;SHT31;56996;48.138;11.538;2023-08-12T01:27:11;19.79;67.50
69731;SHT31;56996;48.138;11.538;2023-08-12T01:29:47;19.76;67.63
69731;SHT31;56996;48.138;11.538;2023-08-12T01:32:25;19.74;67.79
69731;SHT31;56996;48.138;11.538;2023-08-12T01:35:19;19.72;67.84
69731;SHT31;56996;48.138;11.538;2023-08-12T01:37:53;19.68;67.99
69731;SHT31;56996;48.138;11.538;2023-08-12T01:40:21;19.67;68.14
69731;SHT31;56996;48.138;11.538;2023-08-12T01:42:48;19.64;68.26
69731;SHT31;56996;48.138;11.538;2023-08-12T01:45:17;19.60;68.32
69731;SHT31;56996;48.138;11.538;2023-08-12T01:47:45;19.59;68.39
69731;SHT31;56996;48.138;11.538;2023-08-12T01:50:12;19.58;68.47
69731;SHT31;56996;48.138;11.538;2023-08-12T01:52:39;19.56;68.47
69731;SHT31;56996;48.138;11.538;2023-08-12T01:55:06;19.56;68.50
69731;SHT31;56996;48.138;11.538;2023-08-12T01:57:34;19.53;68.69
69731;SHT31;56996;48.138;11.538;2023-08-12T02:00:02;19.50;68.83
69731;SHT31;56996;48.138;11.538;2023-08-12T02:02:42;19.47;68.94
69731;SHT31;56996;48.138;11.538;2023-08-12T02:05:09;19.43;69.04
69731;SHT31;56996;48.138;11.538;2023-08-12T02:07:35;19.42;69.08
69731;SHT31;56996;48.138;11.538;2023-08-12T02:10:02;19.39;69.19
69731;SHT31;56996;48.138;11.538;2023-08-12T02:12:30;19.36;69.30
69731;SHT31;56996;48.138;11.538;2023-08-12T02:14:57;19.33;69.38
69731;SHT31;56996;48.138;11.538;2023-08-12T02:17:24;19.31;69.46
69731;SHT31;56996;48.138;11.538;2023-08-12T02:19:51;19.28;69.52
69731;SHT31;56996;48.138;11.538;2023-08-12T02:22:17;19.26;69.59
69731;SHT31;56996;48.138;11.538;2023-08-12T02:24:45;19.23;69.69
69731;SHT31;56996;48.138;11.538;2023-08-12T02:27:12;19.19;69.78
69731;SHT31;56996;48.138;11.538;2023-08-12T02:29:39;19.17;69.85
69731;SHT31;56996;48.138;11.538;2023-08-12T02:32:06;19.13;69.87
69731;SHT31;56996;48.138;11.538;2023-08-12T02:34:33;19.11;69.92
69731;SHT31;56996;48.138;11.538;2023-08-12T02:37:00;19.08;69.98
69731;SHT31;56996;48.138;11.538;2023-08-12T02:39:29;19.05;70.11
69731;SHT31;56996;48.138;11.538;2023-08-12T02:41:55;19.01;70.24
69731;SHT31;56996;48.138;11.538;2023-08-12T02:44:22;18.98;70.33
69731;SHT31;56996;48.138;11.538;2023-08-12T02:46:49;18.94;70.46
69731;SHT31;56996;48.138;11.538;2023-08-12T02:49:16;18.91;70.50
69731;SHT31;56996;48.138;11.538;2023-08-12T02:51:42;18.87;70.57
69731;SHT31;56996;48.138;11.538;2023-08-12T02:54:09;18.84;70.69
69731;SHT31;56996;48.138;11.538;2023-08-12T02:56:36;18.81;70.80
69731;SHT31;56996;48.138;11.538;2023-08-12T02:59:02;18.77;70.83
69731;SHT31;56996;48.138;11.538;2023-08-12T03:01:29;18.74;70.87
69731;SHT31;56996;48.138;11.538;2023-08-12T03:03:56;18.72;71.04
69731;SHT31;56996;48.138;11.538;2023-08-12T03:06:23;18.69;71.12
69731;SHT31;56996;48.138;11.538;2023-08-12T03:08:49;18.67;71.18
69731;SHT31;56996;48.138;11.538;2023-08-12T03:11:16;18.66;71.23
69731;SHT31;56996;48.138;11.538;2023-08-12T03:13:45;18.61;71.37
69731;SHT31;56996;48.138;11.538;2023-08-12T03:16:12;18.59;71.49
69731;SHT31;56996;48.138;11.538;2023-08-12T03:18:44;18.57;71.58
69731;SHT31;56996;48.138;11.538;2023-08-12T03:21:11;18.55;71.63
69731;SHT31;56996;48.138;11.538;2023-08-12T03:23:38;18.53;71.73
69731;SHT31;56996;48.138;11.538;2023-08-12T03:26:05;18.52;71.79
69731;SHT31;56996;48.138;11.538;2023-08-12T03:28:33;18.48;71.84
69731;SHT31;56996;48.138;11.538;2023-08-12T03:30:59;18.46;71.90
69731;SHT31;56996;48.138;11.538;2023-08-12T03:33:26;18.43;71.91
69731;SHT31;56996;48.138;11.538;2023-08-12T03:35:53;18.40;71.97
69731;SHT31;56996;48.138;11.538;2023-08-12T03:38:20;18.37;72.06
69731;SHT31;56996;48.138;11.538;2023-08-12T03:40:47;18.34;72.13
69731;SHT31;56996;48.138;11.538;2023-08-12T03:43:15;18.33;72.16
69731;SHT31;56996;48.138;11.538;2023-08-12T03:45:43;18.31;72.12
69731;SHT31;56996;48.138;11.538;2023-08-12T03:48:13;18.30;72.10
69731;SHT31;56996;48.138;11.538;2023-08-12T03:50:40;18.30;72.15
69731;SHT31;56996;48.138;11.538;2023-08-12T03:53:08;18.27;72.19
69731;SHT31;56996;48.138;11.538;2023-08-12T03:55:36;18.26;72.24
69731;SHT31;56996;48.138;11.538;2023-08-12T03:58:03;18.25;72.32
69731;SHT31;56996;48.138;11.538;2023-08-12T04:00:31;18.24;72.41
69731;SHT31;56996;48.138;11.538;2023-08-12T04:02:58;18.22;72.47
69731;SHT31;56996;48.138;11.538;2023-08-12T04:05:25;18.20;72.50
69731;SHT31;56996;48.138;11.538;2023-08-12T04:07:52;18.19;72.51
69731;SHT31;56996;48.138;11.538;2023-08-12T04:10:18;18.17;72.56
69731;SHT31;56996;48.138;11.538;2023-08-12T04:12:45;18.16;72.56
69731;SHT31;56996;48.138;11.538;2023-08-12T04:15:12;18.16;72.57
69731;SHT31;56996;48.138;11.538;2023-08-12T04:17:39;18.17;72.59
69731;SHT31;56996;48.138;11.538;2023-08-12T04:20:08;18.20;72.60
69731;SHT31;56996;48.138;11.538;2023-08-12T04:22:35;18.18;72.53
69731;SHT31;56996;48.138;11.538;2023-08-12T04:25:02;18.19;72.49
69731;SHT31;56996;48.138;11.538;2023-08-12T04:27:30;18.21;72.48
69731;SHT31;56996;48.138;11.538;2023-08-12T04:29:57;18.23;72.44
69731;SHT31;56996;48.138;11.538;2023-08-12T04:32:25;18.24;72.46
69731;SHT31;56996;48.138;11.538;2023-08-12T04:34:52;18.25;72.46
69731;SHT31;56996;48.138;11.538;2023-08-12T04:37:19;18.26;72.40
69731;SHT31;56996;48.138;11.538;2023-08-12T04:39:46;18.31;72.32
69731;SHT31;56996;48.138;11.538;2023-08-12T04:42:13;18.34;72.23
69731;SHT31;56996;48.138;11.538;2023-08-12T04:44:40;18.36;72.14
69731;SHT31;56996;48.138;11.538;2023-08-12T04:47:07;18.38;72.07
69731;SHT31;56996;48.138;11.538;2023-08-12T04:49:34;18.40;72.04
69731;SHT31;56996;48.138;11.538;2023-08-12T04:52:01;18.44;71.88
69731;SHT31;56996;48.138;11.538;2023-08-12T04:54:28;18.47;71.91
69731;SHT31;56996;48.138;11.538;2023-08-12T04:56:55;18.51;71.89
69731;SHT31;56996;48.138;11.538;2023-08-12T04:59:22;18.54;71.77
69731;SHT31;56996;48.138;11.538;2023-08-12T05:01:49;18.57;71.68
69731;SHT31;56996;48.138;11.538;2023-08-12T05:04:36;18.60;71.61
69731;SHT31;56996;48.138;11.538;2023-08-12T05:07:03;18.66;71.46
69731;SHT31;56996;48.138;11.538;2023-08-12T05:09:29;18.69;71.48
69731;SHT31;56996;48.138;11.538;2023-08-12T05:11:56;18.75;71.30
69731;SHT31;56996;48.138;11.538;2023-08-12T05:14:23;18.82;71.21
69731;SHT31;56996;48.138;11.538;2023-08-12T05:16:50;18.88;70.97
69731;SHT31;56996;48.138;11.538;2023-08-12T05:19:17;18.93;70.89
69731;SHT31;56996;48.138;11.538;2023-08-12T05:21:43;18.95;70.72
69731;SHT31;56996;48.138;11.538;2023-08-12T05:24:10;18.98;70.59
69731;SHT31;56996;48.138;11.538;2023-08-12T05:26:37;19.01;70.42
69731;SHT31;56996;48.138;11.538;2023-08-12T05:29:04;19.02;70.17
69731;SHT31;56996;48.138;11.538;2023-08-12T05:31:31;19.07;70.08
69731;SHT31;56996;48.138;11.538;2023-08-12T05:33:58;19.10;70.08
69731;SHT31;56996;48.138;11.538;2023-08-12T05:36:24;19.17;69.92
69731;SHT31;56996;48.138;11.538;2023-08-12T05:38:52;19.23;69.75
69731;SHT31;56996;48.138;11.538;2023-08-12T05:41:18;19.28;69.64
69731;SHT31;56996;48.138;11.538;2023-08-12T05:43:45;19.34;69.58
69731;SHT31;56996;48.138;11.538;2023-08-12T05:46:12;19.43;69.33
69731;SHT31;56996;48.138;11.538;2023-08-12T05:48:38;19.50;69.05
69731;SHT31;56996;48.138;11.538;2023-08-12T05:51:05;19.58;68.69
69731;SHT31;56996;48.138;11.538;2023-08-12T05:53:32;19.67;68.59
69731;SHT31;56996;48.138;11.538;2023-08-12T05:55:59;19.80;68.48
69731;SHT31;56996;48.138;11.538;2023-08-12T05:58:26;19.95;68.13
69731;SHT31;56996;48.138;11.538;2023-08-12T06:00:53;20.14;67.73
69731;SHT31;56996;48.138;11.538;2023-08-12T06:03:19;21.22;66.23
69731;SHT31;56996;48.138;11.538;2023-08-12T06:05:46;23.33;62.04
69731;SHT31;56996;48.138;11.538;2023-08-12T06:08:13;25.22;57.49
69731;SHT31;56996;48.138;11.538;2023-08-12T06:10:40;26.63;54.90
69731;SHT31;56996;48.138;11.538;2023-08-12T06:13:07;27.94;52.06
69731;SHT31;56996;48.138;11.538;2023-08-12T06:15:34;28.67;49.55
69731;SHT31;56996;48.138;11.538;2023-08-12T06:18:01;29.33;48.45
69731;SHT31;56996;48.138;11.538;2023-08-12T06:20:29;30.04;46.98
69731;SHT31;56996;48.138;11.538;2023-08-12T06:22:55;31.05;45.38
69731;SHT31;56996;48.138;11.538;2023-08-12T06:25:22;32.32;43.24
69731;SHT31;56996;48.138;11.538;2023-08-12T06:27:49;33.03;41.48
69731;SHT31;56996;48.138;11.538;2023-08-12T06:30:15;32.72;41.24
69731;SHT31;56996;48.138;11.538;2023-08-12T06:32:42;32.98;40.40
69731;SHT31;56996;48.138;11.538;2023-08-12T06:35:09;33.54;39.16
69731;SHT31;56996;48.138;11.538;2023-08-12T06:37:36;33.82;38.48
69731;SHT31;56996;48.138;11.538;2023-08-12T06:40:03;33.85;37.90
69731;SHT31;56996;48.138;11.538;2023-08-12T06:42:30;34.26;37.50
69731;SHT31;56996;48.138;11.538;2023-08-12T06:44:58;34.18;37.20
69731;SHT31;56996;48.138;11.538;2023-08-12T06:47:26;33.26;37.59
69731;SHT31;56996;48.138;11.538;2023-08-12T06:49:54;31.85;39.16
69731;SHT31;56996;48.138;11.538;2023-08-12T06:52:21;30.96;40.27
69731;SHT31;56996;48.138;11.538;2023-08-12T06:54:49;31.45;39.98
69731;SHT31;56996;48.138;11.538;2023-08-12T06:57:15;33.08;37.92
69731;SHT31;56996;48.138;11.538;2023-08-12T06:59:42;34.28;36.35
69731;SHT31;56996;48.138;11.538;2023-08-12T07:02:08;35.02;35.02
69731;SHT31;56996;48.138;11.538;2023-08-12T07:04:36;35.70;34.60
69731;SHT31;56996;48.138;11.538;2023-08-12T07:07:03;35.57;32.67
69731;SHT31;56996;48.138;11.538;2023-08-12T07:09:29;34.88;33.80
69731;SHT31;56996;48.138;11.538;2023-08-12T07:11:56;35.42;33.85
69731;SHT31;56996;48.138;11.538;2023-08-12T07:14:23;36.06;32.66
69731;SHT31;56996;48.138;11.538;2023-08-12T07:16:49;36.65;32.47
69731;SHT31;56996;48.138;11.538;2023-08-12T07:19:16;37.35;31.77
69731;SHT31;56996;48.138;11.538;2023-08-12T07:21:43;36.73;31.79
69731;SHT31;56996;48.138;11.538;2023-08-12T07:24:09;35.05;32.94
69731;SHT31;56996;48.138;11.538;2023-08-12T07:26:36;33.92;34.76
69731;SHT31;56996;48.138;11.538;2023-08-12T07:29:03;33.29;35.54
69731;SHT31;56996;48.138;11.538;2023-08-12T07:31:30;32.99;36.06
69731;SHT31;56996;48.138;11.538;2023-08-12T07:33:57;32.58;36.47
69731;SHT31;56996;48.138;11.538;2023-08-12T07:36:23;31.91;37.28
69731;SHT31;56996;48.138;11.538;2023-08-12T07:38:50;31.34;38.29
69731;SHT31;56996;48.138;11.538;2023-08-12T07:41:17;31.10;38.52
69731;SHT31;56996;48.138;11.538;2023-08-12T07:43:43;30.86;39.16
69731;SHT31;56996;48.138;11.538;2023-08-12T07:46:10;30.71;39.37
69731;SHT31;56996;48.138;11.538;2023-08-12T07:48:37;30.65;39.67
69731;SHT31;56996;48.138;11.538;2023-08-12T07:51:04;30.64;39.74
69731;SHT31;56996;48.138;11.538;2023-08-12T07:53:31;30.61;39.60
69731;SHT31;56996;48.138;11.538;2023-08-12T07:55:58;30.74;39.49
69731;SHT31;56996;48.138;11.538;2023-08-12T07:58:25;31.91;38.29
69731;SHT31;56996;48.138;11.538;2023-08-12T08:00:52;33.07;36.73
69731;SHT31;56996;48.138;11.538;2023-08-12T08:03:20;33.28;36.42
69731;SHT31;56996;48.138;11.538;2023-08-12T08:05:47;33.32;36.43
69731;SHT31;56996;48.138;11.538;2023-08-12T08:08:14;33.49;36.42
69731;SHT31;56996;48.138;11.538;2023-08-12T08:10:41;33.84;36.07
69731;SHT31;56996;48.138;11.538;2023-08-12T08:13:08;34.08;35.10
69731;SHT31;56996;48.138;11.538;2023-08-12T08:15:35;34.55;34.77
69731;SHT31;56996;48.138;11.538;2023-08-12T08:18:01;35.06;34.43
69731;SHT31;56996;48.138;11.538;2023-08-12T08:20:31;35.74;33.13
69731;SHT31;56996;48.138;11.538;2023-08-12T08:22:58;35.92;32.94
69731;SHT31;56996;48.138;11.538;2023-08-12T08:25:25;36.40;32.42
69731;SHT31;56996;48.138;11.538;2023-08-12T08:27:51;36.81;31.78
69731;SHT31;56996;48.138;11.538;2023-08-12T08:30:19;36.84;31.87
69731;SHT31;56996;48.138;11.538;2023-08-12T08:32:46;36.81;31.89
69731;SHT31;56996;48.138;11.538;2023-08-12T08:35:13;36.64;32.00
69731;SHT31;56996;48.138;11.538;2023-08-12T08:37:40;36.97;31.63
69731;SHT31;56996;48.138;11.538;2023-08-12T08:40:08;37.03;31.05
69731;SHT31;56996;48.138;11.538;2023-08-12T08:42:35;36.96;31.53
69731;SHT31;56996;48.138;11.538;2023-08-12T08:45:03;37.28;31.37
69731;SHT31;56996;48.138;11.538;2023-08-12T08:47:36;37.56;31.02
69731;SHT31;56996;48.138;11.538;2023-08-12T08:50:03;37.90;30.78
69731;SHT31;56996;48.138;11.538;2023-08-12T08:52:30;38.37;30.22
69731;SHT31;56996;48.138;11.538;2023-08-12T08:54:59;38.27;30.17
69731;SHT31;56996;48.138;11.538;2023-08-12T08:57:32;38.12;30.22
69731;SHT31;56996;48.138;11.538;2023-08-12T09:00:13;37.68;30.60
69731;SHT31;56996;48.138;11.538;2023-08-12T09:02:46;37.28;30.57
69731;SHT31;56996;48.138;11.538;2023-08-12T09:05:17;36.83;30.92
69731;SHT31;56996;48.138;11.538;2023-08-12T09:07:44;36.38;31.03
69731;SHT31;56996;48.138;11.538;2023-08-12T09:10:11;35.92;31.64
69731;SHT31;56996;48.138;11.538;2023-08-12T09:12:42;35.46;32.26
69731;SHT31;56996;48.138;11.538;2023-08-12T09:15:09;35.16;32.83
69731;SHT31;56996;48.138;11.538;2023-08-12T09:17:37;34.97;33.19
69731;SHT31;56996;48.138;11.538;2023-08-12T09:20:04;34.84;33.23
69731;SHT31;56996;48.138;11.538;2023-08-12T09:22:38;34.61;33.63
69731;SHT31;56996;48.138;11.538;2023-08-12T09:25:09;34.20;34.25
69731;SHT31;56996;48.138;11.538;2023-08-12T09:27:37;34.18;34.34
69731;SHT31;56996;48.138;11.538;2023-08-12T09:30:05;33.85;34.84
69731;SHT31;56996;48.138;11.538;2023-08-12T09:32:32;33.94;35.02
69731;SHT31;56996;48.138;11.538;2023-08-12T09:35:01;34.67;34.62
69731;SHT31;56996;48.138;11.538;2023-08-12T09:37:29;35.71;33.49
69731;SHT31;56996;48.138;11.538;2023-08-12T09:39:56;36.15;32.74
69731;SHT31;56996;48.138;11.538;2023-08-12T09:42:24;36.32;32.51
69731;SHT31;56996;48.138;11.538;2023-08-12T09:44:51;35.99;32.28
69731;SHT31;56996;48.138;11.538;2023-08-12T09:47:18;35.34;33.24
69731;SHT31;56996;48.138;11.538;2023-08-12T09:49:45;35.01;33.80
69731;SHT31;56996;48.138;11.538;2023-08-12T09:52:12;34.86;34.08
69731;SHT31;56996;48.138;11.538;2023-08-12T09:54:40;34.63;34.55
69731;SHT31;56996;48.138;11.538;2023-08-12T09:57:08;34.39;34.88
69731;SHT31;56996;48.138;11.538;2023-08-12T09:59:35;34.39;34.87
69731;SHT31;56996;48.138;11.538;2023-08-12T10:02:03;34.42;34.89
69731;SHT31;56996;48.138;11.538;2023-08-12T10:04:37;34.31;34.41
69731;SHT31;56996;48.138;11.538;2023-08-12T10:07:10;33.96;34.88
69731;SHT31;56996;48.138;11.538;2023-08-12T10:09:41;33.89;35.35
69731;SHT31;56996;48.138;11.538;2023-08-12T10:12:09;33.82;35.53
69731;SHT31;56996;48.138;11.538;2023-08-12T10:14:37;33.96;35.47
69731;SHT31;56996;48.138;11.538;2023-08-12T10:17:05;34.10;35.50
69731;SHT31;56996;48.138;11.538;2023-08-12T10:19:33;34.17;35.42
69731;SHT31;56996;48.138;11.538;2023-08-12T10:22:00;34.31;35.31
69731;SHT31;56996;48.138;11.538;2023-08-12T10:24:30;34.43;35.31
69731;SHT31;56996;48.138;11.538;2023-08-12T10:26:58;34.39;35.42
69731;SHT31;56996;48.138;11.538;2023-08-12T10:29:25;34.35;35.45
69731;SHT31;56996;48.138;11.538;2023-08-12T10:31:52;34.23;35.64
69731;SHT31;56996;48.138;11.538;2023-08-12T10:34:25;34.28;35.67
69731;SHT31;56996;48.138;11.538;2023-08-12T10:36:56;34.31;35.61
69731;SHT31;56996;48.138;11.538;2023-08-12T10:39:32;34.23;35.43
69731;SHT31;56996;48.138;11.538;2023-08-12T10:42:00;34.01;35.79
69731;SHT31;56996;48.138;11.538;2023-08-12T10:44:38;33.72;36.18
69731;SHT31;56996;48.138;11.538;2023-08-12T10:47:15;33.54;36.44
69731;SHT31;56996;48.138;11.538;2023-08-12T10:49:42;33.40;36.49
69731;SHT31;56996;48.138;11.538;2023-08-12T10:52:30;33.23;36.65
69731;SHT31;56996;48.138;11.538;2023-08-12T10:55:18;33.01;36.67
69731;SHT31;56996;48.138;11.538;2023-08-12T10:57:53;32.78;36.88
69731;SHT31;56996;48.138;11.538;2023-08-12T11:00:28;32.82;36.90
69731;SHT31;56996;48.138;11.538;2023-08-12T11:02:56;32.92;36.77
69731;SHT31;56996;48.138;11.538;2023-08-12T11:05:24;32.83;36.96
69731;SHT31;56996;48.138;11.538;2023-08-12T11:08:02;32.81;36.72
69731;SHT31;56996;48.138;11.538;2023-08-12T11:10:34;32.72;36.02
69731;SHT31;56996;48.138;11.538;2023-08-12T11:13:02;32.72;35.57
69731;SHT31;56996;48.138;11.538;2023-08-12T11:15:34;32.64;35.07
69731;SHT31;56996;48.138;11.538;2023-08-12T11:18:08;32.56;34.90
69731;SHT31;56996;48.138;11.538;2023-08-12T11:20:38;32.58;35.08
69731;SHT31;56996;48.138;11.538;2023-08-12T11:23:06;32.64;35.02
69731;SHT31;56996;48.138;11.538;2023-08-12T11:25:34;32.65;34.98
69731;SHT31;56996;48.138;11.538;2023-08-12T11:28:04;32.55;35.40
69731;SHT31;56996;48.138;11.538;2023-08-12T11:30:32;32.54;35.42
69731;SHT31;56996;48.138;11.538;2023-08-12T11:33:00;32.53;35.28
69731;SHT31;56996;48.138;11.538;2023-08-12T11:35:28;32.52;35.42
69731;SHT31;56996;48.138;11.538;2023-08-12T11:37:56;32.55;35.45
69731;SHT31;56996;48.138;11.538;2023-08-12T11:40:25;32.54;35.48
69731;SHT31;56996;48.138;11.538;2023-08-12T11:42:54;32.53;35.59
69731;SHT31;56996;48.138;11.538;2023-08-12T11:45:22;32.55;35.57
69731;SHT31;56996;48.138;11.538;2023-08-12T11:47:50;32.50;34.66
69731;SHT31;56996;48.138;11.538;2023-08-12T11:50:26;32.46;34.94
69731;SHT31;56996;48.138;11.538;2023-08-12T11:52:55;32.42;34.84
69731;SHT31;56996;48.138;11.538;2023-08-12T11:55:23;32.37;35.09
69731;SHT31;56996;48.138;11.538;2023-08-12T11:57:51;32.28;35.03
69731;SHT31;56996;48.138;11.538;2023-08-12T12:00:19;32.22;34.72
69731;SHT31;56996;48.138;11.538;2023-08-12T12:02:54;32.24;35.12
69731;SHT31;56996;48.138;11.538;2023-08-12T12:05:23;32.27;35.22
69731;SHT31;56996;48.138;11.538;2023-08-12T12:07:52;32.34;35.25
69731;SHT31;56996;48.138;11.538;2023-08-12T12:10:20;32.30;34.46
69731;SHT31;56996;48.138;11.538;2023-08-12T12:13:00;32.19;34.50
69731;SHT31;56996;48.138;11.538;2023-08-12T12:15:30;32.04;34.76
69731;SHT31;56996;48.138;11.538;2023-08-12T12:17:58;31.92;35.25
69731;SHT31;56996;48.138;11.538;2023-08-12T12:20:25;31.89;35.74
69731;SHT31;56996;48.138;11.538;2023-08-12T12:22:53;31.98;35.65
69731;SHT31;56996;48.138;11.538;2023-08-12T12:25:21;32.03;35.53
69731;SHT31;56996;48.138;11.538;2023-08-12T12:27:48;32.02;36.03
69731;SHT31;56996;48.138;11.538;2023-08-12T12:30:15;31.97;36.30
69731;SHT31;56996;48.138;11.538;2023-08-12T12:32:43;31.95;36.31
69731;SHT31;56996;48.138;11.538;2023-08-12T12:35:11;31.98;36.48
69731;SHT31;56996;48.138;11.538;2023-08-12T12:37:38;32.00;36.70
69731;SHT31;56996;48.138;11.538;2023-08-12T12:40:05;32.01;36.71
69731;SHT31;56996;48.138;11.538;2023-08-12T12:42:34;32.05;36.84
69731;SHT31;56996;48.138;11.538;2023-08-12T12:45:01;32.07;36.97
69731;SHT31;56996;48.138;11.538;2023-08-12T12:47:29;32.07;36.81
69731;SHT31;56996;48.138;11.538;2023-08-12T12:49:56;32.02;36.85
69731;SHT31;56996;48.138;11.538;2023-08-12T12:52:22;31.96;36.96
69731;SHT31;56996;48.138;11.538;2023-08-12T12:54:49;31.89;36.85
69731;SHT31;56996;48.138;11.538;2023-08-12T12:57:16;31.77;36.77
69731;SHT31;56996;48.138;11.538;2023-08-12T12:59:42;31.72;36.95
69731;SHT31;56996;48.138;11.538;2023-08-12T13:02:09;31.71;37.18
69731;SHT31;56996;48.138;11.538;2023-08-12T13:04:36;31.73;36.96
69731;SHT31;56996;48.138;11.538;2023-08-12T13:07:03;31.74;37.06
69731;SHT31;56996;48.138;11.538;2023-08-12T13:09:30;31.84;36.93
69731;SHT31;56996;48.138;11.538;2023-08-12T13:11:57;31.93;36.25
69731;SHT31;56996;48.138;11.538;2023-08-12T13:14:24;31.97;36.02
69731;SHT31;56996;48.138;11.538;2023-08-12T13:16:51;32.09;35.79
69731;SHT31;56996;48.138;11.538;2023-08-12T13:19:18;32.13;35.95
69731;SHT31;56996;48.138;11.538;2023-08-12T13:21:45;32.20;35.91
69731;SHT31;56996;48.138;11.538;2023-08-12T13:24:11;32.34;35.48
69731;SHT31;56996;48.138;11.538;2023-08-12T13:26:38;32.46;35.54
69731;SHT31;56996;48.138;11.538;2023-08-12T13:29:05;32.64;35.51
69731;SHT31;56996;48.138;11.538;2023-08-12T13:31:32;32.83;35.21
69731;SHT31;56996;48.138;11.538;2023-08-12T13:33:59;32.86;34.05
69731;SHT31;56996;48.138;11.538;2023-08-12T13:36:26;32.82;34.10
69731;SHT31;56996;48.138;11.538;2023-08-12T13:38:53;32.80;34.40
69731;SHT31;56996;48.138;11.538;2023-08-12T13:41:20;32.81;34.84
69731;SHT31;56996;48.138;11.538;2023-08-12T13:43:47;32.85;34.54
69731;SHT31;56996;48.138;11.538;2023-08-12T13:46:13;32.83;34.66
69731;SHT31;56996;48.138;11.538;2023-08-12T13:48:41;32.99;34.49
69731;SHT31;56996;48.138;11.538;2023-08-12T13:51:08;33.26;34.39
69731;SHT31;56996;48.138;11.538;2023-08-12T13:53:35;33.43;34.08
69731;SHT31;56996;48.138;11.538;2023-08-12T13:56:02;33.49;34.38
69731;SHT31;56996;48.138;11.538;2023-08-12T13:58:29;33.42;34.21
69731;SHT31;56996;48.138;11.538;2023-08-12T14:00:55;33.34;33.91
69731;SHT31;56996;48.138;11.538;2023-08-12T14:03:22;33.26;34.54
69731;SHT31;56996;48.138;11.538;2023-08-12T14:05:49;33.22;34.47
69731;SHT31;56996;48.138;11.538;2023-08-12T14:08:16;33.13;34.17
69731;SHT31;56996;48.138;11.538;2023-08-12T14:10:43;33.04;34.23
69731;SHT31;56996;48.138;11.538;2023-08-12T14:13:15;33.10;34.40
69731;SHT31;56996;48.138;11.538;2023-08-12T14:15:42;33.13;34.50
69731;SHT31;56996;48.138;11.538;2023-08-12T14:18:09;33.11;34.34
69731;SHT31;56996;48.138;11.538;2023-08-12T14:20:35;33.05;34.56
69731;SHT31;56996;48.138;11.538;2023-08-12T14:23:02;32.98;34.75
69731;SHT31;56996;48.138;11.538;2023-08-12T14:25:29;32.92;35.05
69731;SHT31;56996;48.138;11.538;2023-08-12T14:27:56;32.85;34.89
69731;SHT31;56996;48.138;11.538;2023-08-12T14:30:23;32.71;34.77
69731;SHT31;56996;48.138;11.538;2023-08-12T14:32:54;32.60;34.49
69731;SHT31;56996;48.138;11.538;2023-08-12T14:35:21;32.66;34.57
69731;SHT31;56996;48.138;11.538;2023-08-12T14:37:48;32.83;34.70
69731;SHT31;56996;48.138;11.538;2023-08-12T14:40:14;33.02;34.68
69731;SHT31;56996;48.138;11.538;2023-08-12T14:42:41;33.09;34.77
69731;SHT31;56996;48.138;11.538;2023-08-12T14:45:10;33.02;34.64
69731;SHT31;56996;48.138;11.538;2023-08-12T14:47:37;32.92;34.70
69731;SHT31;56996;48.138;11.538;2023-08-12T14:50:04;32.82;34.77
69731;SHT31;56996;48.138;11.538;2023-08-12T14:52:31;32.60;35.27
69731;SHT31;56996;48.138;11.538;2023-08-12T14:54:58;32.29;35.72
69731;SHT31;56996;48.138;11.538;2023-08-12T14:57:24;32.08;36.54
69731;SHT31;56996;48.138;11.538;2023-08-12T14:59:51;31.98;36.90
69731;SHT31;56996;48.138;11.538;2023-08-12T15:02:19;31.90;37.21
69731;SHT31;56996;48.138;11.538;2023-08-12T15:04:50;31.85;37.25
69731;SHT31;56996;48.138;11.538;2023-08-12T15:07:18;31.81;37.07
69731;SHT31;56996;48.138;11.538;2023-08-12T15:09:46;31.70;36.59
69731;SHT31;56996;48.138;11.538;2023-08-12T15:12:13;31.53;36.04
69731;SHT31;56996;48.138;11.538;2023-08-12T15:14:40;31.44;35.75
69731;SHT31;56996;48.138;11.538;2023-08-12T15:17:06;31.35;35.14
69731;SHT31;56996;48.138;11.538;2023-08-12T15:19:34;31.25;35.09
69731;SHT31;56996;48.138;11.538;2023-08-12T15:22:00;30.92;35.58